Nearby METAR Reports

 

CWGT - Sisters Island (Auto)
Distance from station: NE 39km
Updated: 2019-10-13 13:00

 Wind from NW
Wind: NW 24 km/h
Temperature: 12°C
Dew Point: 6°C
Humidity: 67%
2019/10/13 20:00 CWGT 132000Z AUTO 32013KT 12/06 RMK AO1 PK WND 32017/1935 SLP147 T01170063 51005
CWGB - Ballenas Island (Auto)
Distance from station: ENE 47km
Updated: 2019-10-13 13:00

 Wind from W
Wind: W 24 km/h
Temperature: 11°C
Dew Point: 7°C
Humidity: 77%
2019/10/13 20:00 CWGB 132000Z AUTO 28013KT 11/07 RMK AO1 SLP144 T01110068 51005
CYQQ - CFB Comox
Distance from station: N 55km
Updated: 2019-10-13 13:00
Few Clouds
Few Clouds
 Wind from N
Wind: N 22 km/h
Temperature: 12°C
Dew Point: 6°C
Humidity: 67%
Barometer: 1014.9 hPa
Clouds: Few Clouds
Visibility: 32 km
Cloud details: Few Clouds 762 m
Few Clouds 1829 m
2019/10/13 20:00 CYQQ 132000Z 36012KT 20SM FEW025 FEW060 12/06 A2997 RMK SC1SC1 SLP149
 
CYPW - Powell River Airport
Distance from station: NNE 69km
Updated: 2019-10-13 13:00
Few Clouds
Few Clouds
 Wind from W
Wind: W 19 km/h
Temperature: 12°C
Dew Point: 7°C
Humidity: 72%
Barometer: 1014.6 hPa
Clouds: Few Clouds
Visibility: 48 km
Cloud details: Few Clouds 335 m
Few Clouds 640 m
2019/10/13 20:00 CYPW 132000Z 28010KT 30SM FEW011 FEW021 12/07 A2996 RMK SF1SC2 SF TR SLP149
CYCD - Nanaimo Airport
Distance from station: ESE 70km
Updated: 2019-10-13 13:00
Mostly cloudy
Mostly cloudy
 Wind from N
Wind: N 22 km/h
Temperature: 15°C
Dew Point: 5°C
Humidity: 51%
Barometer: 1014.2 hPa
Clouds: Mostly cloudy
Visibility: 40 km
Cloud details: Few Clouds 1219 m
Mostly cloudy 2103 m
2019/10/13 20:00 CYCD 132000Z 01012KT 25SM FEW040 BKN069 15/05 A2995 RMK CU2AC4 SLP144 DENSITY ALT 100FT
CYAZ - Tofino Airport
Distance from station: WSW 73km
Updated: 2019-10-13 13:00
Few Clouds
Few Clouds
 Wind from SW
Wind: SW 9 km/h
Temperature: 14°C
Dew Point: 8°C
Humidity: 67%
Barometer: 1014.6 hPa
Clouds: Few Clouds
Visibility: 24 km
Cloud details: Few Clouds 701 m
2019/10/13 20:00 CYAZ 132000Z 22005KT 160V230 15SM FEW023 14/08 A2996 RMK CU1 SLP146
 
CWEL - Entrance Island (Auto)
Distance from station: E 73km
Updated: 2019-10-13 13:00

 Wind from NNW
Wind: NNW 35 km/h
Temperature: 12°C
Dew Point: 8°C
Humidity: 77%
2019/10/13 20:00 CWEL 132000Z AUTO 33019KT 12/08 RMK AO1 PK WND 33021/1947 SLP144 T01240076 51004
CYBL - Campbell River Airport
Distance from station: NNW 88km
Updated: 2019-10-13 13:00
Few Clouds
Few Clouds
 Wind from NNW
Wind: NNW 22 km/h, Gust: 33 km/h
Temperature: 14°C
Dew Point: 3°C
Humidity: 48%
Barometer: 1014.6 hPa
Clouds: Few Clouds
Visibility: 48 km
Cloud details: Few Clouds 914 m
2019/10/13 20:00 CYBL 132000Z 33012G18KT 270V340 30SM FEW030 14/03 A2996 RMK CU1 SLP149
CWKH - Malahat Highway (Auto)
Distance from station: SE 116km
Updated: 2019-10-13 13:00

 
Temperature: 11°C
2019/10/13 20:00 CWKH 132000Z AUTO 11/ RMK AO1 SLP135 T0105 51004
 
CYVR - Vancouver Intl Airport
Distance from station: E 118km
Updated: 2019-10-13 13:00
Mostly cloudy
Mostly cloudy
 Wind from WNW
Wind: WNW 22 km/h
Temperature: 12°C
Dew Point: 8°C
Humidity: 77%
Barometer: 1014.2 hPa
Clouds: Mostly cloudy
Visibility: 32 km
Cloud details: Few Clouds 549 m
Few Clouds 853 m
Mostly cloudy 2499 m
2019/10/13 20:00 CYVR 132000Z 29012KT 20SM FEW018 FEW028 BKN082 12/08 A2995 RMK CU1SC2AC5 CU TR SLP144
CYYJ - Victoria Intl Airport
Distance from station: ESE 120km
Updated: 2019-10-13 13:00
Partly cloudy
Partly cloudy
 Wind from ESE
Wind: ESE 11 km/h
Temperature: 12°C
Dew Point: 7°C
Humidity: 72%
Barometer: 1014.6 hPa
Clouds: Partly cloudy
Visibility: 48 km
Cloud details: Few Clouds 914 m
Few Clouds 1524 m
Partly cloudy 2743 m
2019/10/13 20:00 CYYJ 132000Z 11006KT 30SM FEW030 FEW050 SCT090 12/07 A2996 RMK CU1SC1AC2 CU TR SLP146
CWEB - Estevan Pt. (Auto)
Distance from station: W 129km
Updated: 2019-10-13 13:00

 Wind from NNW
Wind: NNW 35 km/h
Temperature: 13°C
Dew Point: 6°C
Humidity: 63%
2019/10/13 20:00 CWEB 132000Z AUTO 33019KT 13/06 RMK AO1 PK WND 34024/1906 SLP154 T01260062 51003
 
CWQK - Race Rocks (Auto)
Distance from station: SE 138km
Updated: 2019-10-13 13:00

 Wind from ESE
Wind: ESE 6 km/h
Temperature: 12°C
Dew Point: 8°C
Humidity: 77%
2019/10/13 20:00 CWQK 132000Z AUTO 12003KT 12/08 RMK AO1 SLP149 T01240083 51005
CWAE - Whistler
Distance from station: NE 167km
Updated: 2019-10-13 13:00
Overcast
Overcast
 Wind from S
Wind: S 9 km/h
Temperature: 9°C
Wind Chill: 7°C
Dew Point: 5°C
Humidity: 76%
Barometer: 1012.2 hPa
Clouds: Overcast
Visibility: 24 km
Cloud details: Partly cloudy 518 m
Overcast 1036 m
2019/10/13 20:00 CWAE 132000Z 18005KT 15SM SCT017 OVC034 09/05 A2989 RMK SC4SC4 WND ESTD SLP130
CYZT - Port Hardy Airport
Distance from station: NW 244km
Updated: 2019-10-13 13:00
Partly cloudy
Partly cloudy
 Wind from WSW
Wind: WSW 15 km/h
Temperature: 13°C
Dew Point: 8°C
Humidity: 72%
Barometer: 1016.6 hPa
Clouds: Partly cloudy
Visibility: 32 km
Cloud details: Few Clouds 671 m
Partly cloudy 1372 m
2019/10/13 20:00 CYZT 132000Z 24008KT 20SM FEW022 SCT045 13/08 A3002 RMK CU2SC2 SLP168
 
CWRU - Solander Isl (Auto)
Distance from station: WNW 247km
Updated: 2019-10-13 13:00

 Wind from NNW
Wind: NNW 22 km/h
Temperature: 11°C
Dew Point: 5°C
Humidity: 67%
2019/10/13 20:00 CWRU 132000Z AUTO 34012KT 11/05 RMK AO1 SLP162 T01070049 51002